sensor_id;sensor_type;location;lat;lon;timestamp;P1;durP1;ratioP1;P2;durP2;ratioP2
69703;SDS011;56967;43.538;-5.646;2023-03-29T00:00:13;15.70;;;9.13;;
69703;SDS011;56967;43.538;-5.646;2023-03-29T00:02:40;18.00;;;9.73;;
69703;SDS011;56967;43.538;-5.646;2023-03-29T00:05:06;19.70;;;10.18;;
69703;SDS011;56967;43.538;-5.646;2023-03-29T00:07:32;17.10;;;9.60;;
69703;SDS011;56967;43.538;-5.646;2023-03-29T00:09:59;21.38;;;9.77;;
69703;SDS011;56967;43.538;-5.646;2023-03-29T00:12:25;16.48;;;8.77;;
69703;SDS011;56967;43.538;-5.646;2023-03-29T00:14:51;14.30;;;8.05;;
69703;SDS011;56967;43.538;-5.646;2023-03-29T00:17:17;14.68;;;8.90;;
69703;SDS011;56967;43.538;-5.646;2023-03-29T00:19:43;17.20;;;8.52;;
69703;SDS011;56967;43.538;-5.646;2023-03-29T00:22:09;15.18;;;8.18;;
69703;SDS011;56967;43.538;-5.646;2023-03-29T00:24:35;13.30;;;7.90;;
69703;SDS011;56967;43.538;-5.646;2023-03-29T00:27:00;13.10;;;7.55;;
69703;SDS011;56967;43.538;-5.646;2023-03-29T00:29:26;17.80;;;8.40;;
69703;SDS011;56967;43.538;-5.646;2023-03-29T00:31:51;13.50;;;7.80;;
69703;SDS011;56967;43.538;-5.646;2023-03-29T00:34:23;14.35;;;7.82;;
69703;SDS011;56967;43.538;-5.646;2023-03-29T00:36:54;15.77;;;7.78;;
69703;SDS011;56967;43.538;-5.646;2023-03-29T00:39:22;13.77;;;8.05;;
69703;SDS011;56967;43.538;-5.646;2023-03-29T00:41:49;14.38;;;8.30;;
69703;SDS011;56967;43.538;-5.646;2023-03-29T00:47:19;14.55;;;8.00;;
69703;SDS011;56967;43.538;-5.646;2023-03-29T00:49:51;14.18;;;7.97;;
69703;SDS011;56967;43.538;-5.646;2023-03-29T00:52:18;17.27;;;8.75;;
69703;SDS011;56967;43.538;-5.646;2023-03-29T00:54:46;13.18;;;8.02;;
69703;SDS011;56967;43.538;-5.646;2023-03-29T00:57:14;15.27;;;7.90;;
69703;SDS011;56967;43.538;-5.646;2023-03-29T00:59:43;13.95;;;7.95;;
69703;SDS011;56967;43.538;-5.646;2023-03-29T01:02:11;15.40;;;8.68;;
69703;SDS011;56967;43.538;-5.646;2023-03-29T01:09:59;16.02;;;8.57;;
69703;SDS011;56967;43.538;-5.646;2023-03-29T01:12:34;17.80;;;8.90;;
69703;SDS011;56967;43.538;-5.646;2023-03-29T01:15:05;17.17;;;9.30;;
69703;SDS011;56967;43.538;-5.646;2023-03-29T01:17:34;15.90;;;8.50;;
69703;SDS011;56967;43.538;-5.646;2023-03-29T01:20:08;16.70;;;9.32;;
69703;SDS011;56967;43.538;-5.646;2023-03-29T01:25:46;15.55;;;9.25;;
69703;SDS011;56967;43.538;-5.646;2023-03-29T01:28:22;14.20;;;8.90;;
69703;SDS011;56967;43.538;-5.646;2023-03-29T01:30:58;14.07;;;8.95;;
69703;SDS011;56967;43.538;-5.646;2023-03-29T01:33:46;14.95;;;8.90;;
69703;SDS011;56967;43.538;-5.646;2023-03-29T01:36:17;18.17;;;9.27;;
69703;SDS011;56967;43.538;-5.646;2023-03-29T01:41:45;19.73;;;10.55;;
69703;SDS011;56967;43.538;-5.646;2023-03-29T01:44:25;18.23;;;9.82;;
69703;SDS011;56967;43.538;-5.646;2023-03-29T01:47:01;18.60;;;10.18;;
69703;SDS011;56967;43.538;-5.646;2023-03-29T01:52:30;17.33;;;9.80;;
69703;SDS011;56967;43.538;-5.646;2023-03-29T01:55:10;18.65;;;9.38;;
69703;SDS011;56967;43.538;-5.646;2023-03-29T01:57:40;16.70;;;9.60;;
69703;SDS011;56967;43.538;-5.646;2023-03-29T02:00:11;18.20;;;10.18;;
69703;SDS011;56967;43.538;-5.646;2023-03-29T02:02:40;18.90;;;10.10;;
69703;SDS011;56967;43.538;-5.646;2023-03-29T02:05:09;19.52;;;10.23;;
69703;SDS011;56967;43.538;-5.646;2023-03-29T02:07:38;18.05;;;10.20;;
69703;SDS011;56967;43.538;-5.646;2023-03-29T02:10:07;18.00;;;9.55;;
69703;SDS011;56967;43.538;-5.646;2023-03-29T02:12:35;17.98;;;9.93;;
69703;SDS011;56967;43.538;-5.646;2023-03-29T02:15:03;16.05;;;9.77;;
69703;SDS011;56967;43.538;-5.646;2023-03-29T02:17:31;15.32;;;9.20;;
69703;SDS011;56967;43.538;-5.646;2023-03-29T02:19:58;18.45;;;9.23;;
69703;SDS011;56967;43.538;-5.646;2023-03-29T02:22:40;13.38;;;8.77;;
69703;SDS011;56967;43.538;-5.646;2023-03-29T02:25:21;15.95;;;8.93;;
69703;SDS011;56967;43.538;-5.646;2023-03-29T02:27:48;17.42;;;9.68;;
69703;SDS011;56967;43.538;-5.646;2023-03-29T02:30:16;18.00;;;9.70;;
69703;SDS011;56967;43.538;-5.646;2023-03-29T02:32:47;16.08;;;9.13;;
69703;SDS011;56967;43.538;-5.646;2023-03-29T02:35:38;18.58;;;10.30;;
69703;SDS011;56967;43.538;-5.646;2023-03-29T02:38:08;19.33;;;9.23;;
69703;SDS011;56967;43.538;-5.646;2023-03-29T02:40:35;17.48;;;9.23;;
69703;SDS011;56967;43.538;-5.646;2023-03-29T02:43:03;15.07;;;8.63;;
69703;SDS011;56967;43.538;-5.646;2023-03-29T02:45:31;18.45;;;9.10;;
69703;SDS011;56967;43.538;-5.646;2023-03-29T02:48:01;16.17;;;8.70;;
69703;SDS011;56967;43.538;-5.646;2023-03-29T02:50:33;15.52;;;9.05;;
69703;SDS011;56967;43.538;-5.646;2023-03-29T02:53:02;16.20;;;9.25;;
69703;SDS011;56967;43.538;-5.646;2023-03-29T02:55:32;13.20;;;7.78;;
69703;SDS011;56967;43.538;-5.646;2023-03-29T02:57:59;18.13;;;9.32;;
69703;SDS011;56967;43.538;-5.646;2023-03-29T03:00:35;16.17;;;8.40;;
69703;SDS011;56967;43.538;-5.646;2023-03-29T03:03:06;18.48;;;8.88;;
69703;SDS011;56967;43.538;-5.646;2023-03-29T03:05:33;14.93;;;8.20;;
69703;SDS011;56967;43.538;-5.646;2023-03-29T03:07:59;16.10;;;8.43;;
69703;SDS011;56967;43.538;-5.646;2023-03-29T03:10:25;14.23;;;8.35;;
69703;SDS011;56967;43.538;-5.646;2023-03-29T03:12:50;13.52;;;8.73;;
69703;SDS011;56967;43.538;-5.646;2023-03-29T03:15:16;13.23;;;8.38;;
69703;SDS011;56967;43.538;-5.646;2023-03-29T03:17:42;14.07;;;8.00;;
69703;SDS011;56967;43.538;-5.646;2023-03-29T03:20:09;16.10;;;8.27;;
69703;SDS011;56967;43.538;-5.646;2023-03-29T03:22:37;11.90;;;7.88;;
69703;SDS011;56967;43.538;-5.646;2023-03-29T03:25:04;11.68;;;8.10;;
69703;SDS011;56967;43.538;-5.646;2023-03-29T03:27:30;19.80;;;8.25;;
69703;SDS011;56967;43.538;-5.646;2023-03-29T03:29:58;13.18;;;7.30;;
69703;SDS011;56967;43.538;-5.646;2023-03-29T03:32:23;14.02;;;7.32;;
69703;SDS011;56967;43.538;-5.646;2023-03-29T03:34:49;14.00;;;7.72;;
69703;SDS011;56967;43.538;-5.646;2023-03-29T03:37:14;12.43;;;8.10;;
69703;SDS011;56967;43.538;-5.646;2023-03-29T03:39:40;14.88;;;8.30;;
69703;SDS011;56967;43.538;-5.646;2023-03-29T03:42:05;15.20;;;8.30;;
69703;SDS011;56967;43.538;-5.646;2023-03-29T03:44:31;13.50;;;8.30;;
69703;SDS011;56967;43.538;-5.646;2023-03-29T03:46:57;12.98;;;8.60;;
69703;SDS011;56967;43.538;-5.646;2023-03-29T03:49:22;18.33;;;9.02;;
69703;SDS011;56967;43.538;-5.646;2023-03-29T03:51:48;13.73;;;8.43;;
69703;SDS011;56967;43.538;-5.646;2023-03-29T03:54:13;13.32;;;7.95;;
69703;SDS011;56967;43.538;-5.646;2023-03-29T03:56:39;17.63;;;8.90;;
69703;SDS011;56967;43.538;-5.646;2023-03-29T03:59:04;15.75;;;8.52;;
69703;SDS011;56967;43.538;-5.646;2023-03-29T04:01:31;13.73;;;7.90;;
69703;SDS011;56967;43.538;-5.646;2023-03-29T04:03:58;14.07;;;8.50;;
69703;SDS011;56967;43.538;-5.646;2023-03-29T04:06:23;15.60;;;8.88;;
69703;SDS011;56967;43.538;-5.646;2023-03-29T04:08:49;15.25;;;8.18;;
69703;SDS011;56967;43.538;-5.646;2023-03-29T04:11:15;18.63;;;9.38;;
69703;SDS011;56967;43.538;-5.646;2023-03-29T04:13:41;12.80;;;8.13;;
69703;SDS011;56967;43.538;-5.646;2023-03-29T04:16:06;16.75;;;8.80;;
69703;SDS011;56967;43.538;-5.646;2023-03-29T04:18:32;16.92;;;8.52;;
69703;SDS011;56967;43.538;-5.646;2023-03-29T04:20:57;14.18;;;8.82;;
69703;SDS011;56967;43.538;-5.646;2023-03-29T04:23:23;13.77;;;8.00;;
69703;SDS011;56967;43.538;-5.646;2023-03-29T04:25:52;12.75;;;8.15;;
69703;SDS011;56967;43.538;-5.646;2023-03-29T04:28:19;13.48;;;7.88;;
69703;SDS011;56967;43.538;-5.646;2023-03-29T04:30:45;14.93;;;8.38;;
69703;SDS011;56967;43.538;-5.646;2023-03-29T04:33:12;14.68;;;8.23;;
69703;SDS011;56967;43.538;-5.646;2023-03-29T04:35:37;13.63;;;7.93;;
69703;SDS011;56967;43.538;-5.646;2023-03-29T04:38:03;16.50;;;8.40;;
69703;SDS011;56967;43.538;-5.646;2023-03-29T04:40:28;14.63;;;8.15;;
69703;SDS011;56967;43.538;-5.646;2023-03-29T04:42:54;15.00;;;8.43;;
69703;SDS011;56967;43.538;-5.646;2023-03-29T04:45:20;14.80;;;7.68;;
69703;SDS011;56967;43.538;-5.646;2023-03-29T04:47:46;15.40;;;7.93;;
69703;SDS011;56967;43.538;-5.646;2023-03-29T04:50:11;17.20;;;8.60;;
69703;SDS011;56967;43.538;-5.646;2023-03-29T04:52:38;13.38;;;7.75;;
69703;SDS011;56967;43.538;-5.646;2023-03-29T04:55:04;14.55;;;7.93;;
69703;SDS011;56967;43.538;-5.646;2023-03-29T04:57:31;11.68;;;7.43;;
69703;SDS011;56967;43.538;-5.646;2023-03-29T04:59:56;13.07;;;7.70;;
69703;SDS011;56967;43.538;-5.646;2023-03-29T05:02:22;13.00;;;8.07;;
69703;SDS011;56967;43.538;-5.646;2023-03-29T05:04:48;19.15;;;8.13;;
69703;SDS011;56967;43.538;-5.646;2023-03-29T05:07:14;14.80;;;8.30;;
69703;SDS011;56967;43.538;-5.646;2023-03-29T05:09:41;14.45;;;7.85;;
69703;SDS011;56967;43.538;-5.646;2023-03-29T05:12:07;17.13;;;8.35;;
69703;SDS011;56967;43.538;-5.646;2023-03-29T05:14:33;17.83;;;9.07;;
69703;SDS011;56967;43.538;-5.646;2023-03-29T05:16:58;15.00;;;8.93;;
69703;SDS011;56967;43.538;-5.646;2023-03-29T05:19:25;19.88;;;9.13;;
69703;SDS011;56967;43.538;-5.646;2023-03-29T05:21:51;19.80;;;9.55;;
69703;SDS011;56967;43.538;-5.646;2023-03-29T05:24:17;17.23;;;9.00;;
69703;SDS011;56967;43.538;-5.646;2023-03-29T05:26:44;18.65;;;9.50;;
69703;SDS011;56967;43.538;-5.646;2023-03-29T05:29:11;18.50;;;9.43;;
69703;SDS011;56967;43.538;-5.646;2023-03-29T05:31:38;15.02;;;8.63;;
69703;SDS011;56967;43.538;-5.646;2023-03-29T05:34:03;15.98;;;8.50;;
69703;SDS011;56967;43.538;-5.646;2023-03-29T05:36:29;16.77;;;8.75;;
69703;SDS011;56967;43.538;-5.646;2023-03-29T05:38:55;15.68;;;8.57;;
69703;SDS011;56967;43.538;-5.646;2023-03-29T05:41:21;16.25;;;8.25;;
69703;SDS011;56967;43.538;-5.646;2023-03-29T05:43:48;16.65;;;8.57;;
69703;SDS011;56967;43.538;-5.646;2023-03-29T05:46:14;18.15;;;9.10;;
69703;SDS011;56967;43.538;-5.646;2023-03-29T05:48:40;15.75;;;8.23;;
69703;SDS011;56967;43.538;-5.646;2023-03-29T05:51:06;15.15;;;9.10;;
69703;SDS011;56967;43.538;-5.646;2023-03-29T05:53:32;23.55;;;9.50;;
69703;SDS011;56967;43.538;-5.646;2023-03-29T05:55:59;18.15;;;8.65;;
69703;SDS011;56967;43.538;-5.646;2023-03-29T05:58:25;15.70;;;8.27;;
69703;SDS011;56967;43.538;-5.646;2023-03-29T06:00:52;14.63;;;9.10;;
69703;SDS011;56967;43.538;-5.646;2023-03-29T06:03:19;20.58;;;9.25;;
69703;SDS011;56967;43.538;-5.646;2023-03-29T06:05:54;20.50;;;9.23;;
69703;SDS011;56967;43.538;-5.646;2023-03-29T06:08:24;17.48;;;9.32;;
69703;SDS011;56967;43.538;-5.646;2023-03-29T06:10:58;17.67;;;8.68;;
69703;SDS011;56967;43.538;-5.646;2023-03-29T06:13:25;19.85;;;9.40;;
69703;SDS011;56967;43.538;-5.646;2023-03-29T06:15:51;14.77;;;8.43;;
69703;SDS011;56967;43.538;-5.646;2023-03-29T06:18:17;15.93;;;9.25;;
69703;SDS011;56967;43.538;-5.646;2023-03-29T06:20:46;16.85;;;8.65;;
69703;SDS011;56967;43.538;-5.646;2023-03-29T06:23:13;14.60;;;7.50;;
69703;SDS011;56967;43.538;-5.646;2023-03-29T06:25:39;12.90;;;7.72;;
69703;SDS011;56967;43.538;-5.646;2023-03-29T06:28:05;26.02;;;8.75;;
69703;SDS011;56967;43.538;-5.646;2023-03-29T06:30:30;16.85;;;8.05;;
69703;SDS011;56967;43.538;-5.646;2023-03-29T06:32:57;17.92;;;8.98;;
69703;SDS011;56967;43.538;-5.646;2023-03-29T06:35:25;20.33;;;8.60;;
69703;SDS011;56967;43.538;-5.646;2023-03-29T06:37:51;17.13;;;8.27;;
69703;SDS011;56967;43.538;-5.646;2023-03-29T06:40:17;15.68;;;8.13;;
69703;SDS011;56967;43.538;-5.646;2023-03-29T06:42:45;17.52;;;7.60;;
69703;SDS011;56967;43.538;-5.646;2023-03-29T06:45:12;17.35;;;7.90;;
69703;SDS011;56967;43.538;-5.646;2023-03-29T06:47:38;16.48;;;8.75;;
69703;SDS011;56967;43.538;-5.646;2023-03-29T06:50:04;16.60;;;7.57;;
69703;SDS011;56967;43.538;-5.646;2023-03-29T06:52:32;18.17;;;8.20;;
69703;SDS011;56967;43.538;-5.646;2023-03-29T06:54:57;14.98;;;8.48;;
69703;SDS011;56967;43.538;-5.646;2023-03-29T06:57:25;15.90;;;8.65;;
69703;SDS011;56967;43.538;-5.646;2023-03-29T06:59:51;17.70;;;8.57;;
69703;SDS011;56967;43.538;-5.646;2023-03-29T07:02:17;14.25;;;7.70;;
69703;SDS011;56967;43.538;-5.646;2023-03-29T07:04:43;20.70;;;8.15;;
69703;SDS011;56967;43.538;-5.646;2023-03-29T07:07:09;16.95;;;8.48;;
69703;SDS011;56967;43.538;-5.646;2023-03-29T07:09:43;15.75;;;7.93;;
69703;SDS011;56967;43.538;-5.646;2023-03-29T07:12:10;17.05;;;8.55;;
69703;SDS011;56967;43.538;-5.646;2023-03-29T07:14:36;14.68;;;8.00;;
69703;SDS011;56967;43.538;-5.646;2023-03-29T07:17:02;18.83;;;8.95;;
69703;SDS011;56967;43.538;-5.646;2023-03-29T07:19:28;17.05;;;9.23;;
69703;SDS011;56967;43.538;-5.646;2023-03-29T07:21:54;19.35;;;9.52;;
69703;SDS011;56967;43.538;-5.646;2023-03-29T07:24:21;18.77;;;9.38;;
69703;SDS011;56967;43.538;-5.646;2023-03-29T07:26:46;23.77;;;9.55;;
69703;SDS011;56967;43.538;-5.646;2023-03-29T07:29:13;22.48;;;9.90;;
69703;SDS011;56967;43.538;-5.646;2023-03-29T07:31:39;22.30;;;8.82;;
69703;SDS011;56967;43.538;-5.646;2023-03-29T07:34:08;31.20;;;10.55;;
69703;SDS011;56967;43.538;-5.646;2023-03-29T07:36:37;32.80;;;10.20;;
69703;SDS011;56967;43.538;-5.646;2023-03-29T07:39:04;21.83;;;9.90;;
69703;SDS011;56967;43.538;-5.646;2023-03-29T07:41:31;21.58;;;9.48;;
69703;SDS011;56967;43.538;-5.646;2023-03-29T07:43:56;23.23;;;8.88;;
69703;SDS011;56967;43.538;-5.646;2023-03-29T07:46:26;23.20;;;9.15;;
69703;SDS011;56967;43.538;-5.646;2023-03-29T07:48:53;21.42;;;8.57;;
69703;SDS011;56967;43.538;-5.646;2023-03-29T07:51:20;23.50;;;9.57;;
69703;SDS011;56967;43.538;-5.646;2023-03-29T07:53:46;25.20;;;12.43;;
69703;SDS011;56967;43.538;-5.646;2023-03-29T07:56:13;20.92;;;9.90;;
69703;SDS011;56967;43.538;-5.646;2023-03-29T07:58:38;17.52;;;8.32;;
69703;SDS011;56967;43.538;-5.646;2023-03-29T08:01:04;21.38;;;8.40;;
69703;SDS011;56967;43.538;-5.646;2023-03-29T08:03:31;28.40;;;8.32;;
69703;SDS011;56967;43.538;-5.646;2023-03-29T08:06:00;19.05;;;8.18;;
69703;SDS011;56967;43.538;-5.646;2023-03-29T08:08:27;19.88;;;7.50;;
69703;SDS011;56967;43.538;-5.646;2023-03-29T08:10:52;18.50;;;7.97;;
69703;SDS011;56967;43.538;-5.646;2023-03-29T08:13:18;18.35;;;8.27;;
69703;SDS011;56967;43.538;-5.646;2023-03-29T08:15:43;22.13;;;7.65;;
69703;SDS011;56967;43.538;-5.646;2023-03-29T08:18:12;17.38;;;7.90;;
69703;SDS011;56967;43.538;-5.646;2023-03-29T08:20:38;18.08;;;8.00;;
69703;SDS011;56967;43.538;-5.646;2023-03-29T08:23:04;20.90;;;8.55;;
69703;SDS011;56967;43.538;-5.646;2023-03-29T08:25:30;20.38;;;8.13;;
69703;SDS011;56967;43.538;-5.646;2023-03-29T08:27:56;19.20;;;7.13;;
69703;SDS011;56967;43.538;-5.646;2023-03-29T08:30:22;18.23;;;8.20;;
69703;SDS011;56967;43.538;-5.646;2023-03-29T08:32:47;23.17;;;7.70;;
69703;SDS011;56967;43.538;-5.646;2023-03-29T08:35:14;17.58;;;8.30;;
69703;SDS011;56967;43.538;-5.646;2023-03-29T08:37:39;20.02;;;7.80;;
69703;SDS011;56967;43.538;-5.646;2023-03-29T08:40:06;16.85;;;6.85;;
69703;SDS011;56967;43.538;-5.646;2023-03-29T08:42:36;30.05;;;9.07;;
69703;SDS011;56967;43.538;-5.646;2023-03-29T08:48:25;20.55;;;8.20;;
69703;SDS011;56967;43.538;-5.646;2023-03-29T08:50:59;18.55;;;7.72;;
69703;SDS011;56967;43.538;-5.646;2023-03-29T08:53:40;20.17;;;8.38;;
69703;SDS011;56967;43.538;-5.646;2023-03-29T08:56:17;22.55;;;8.55;;
69703;SDS011;56967;43.538;-5.646;2023-03-29T08:58:47;21.48;;;8.82;;
69703;SDS011;56967;43.538;-5.646;2023-03-29T09:01:15;29.73;;;9.60;;
69703;SDS011;56967;43.538;-5.646;2023-03-29T09:03:48;47.17;;;11.55;;
69703;SDS011;56967;43.538;-5.646;2023-03-29T09:06:21;37.63;;;12.52;;
69703;SDS011;56967;43.538;-5.646;2023-03-29T09:08:48;52.83;;;14.02;;
69703;SDS011;56967;43.538;-5.646;2023-03-29T09:13:57;44.33;;;13.05;;
69703;SDS011;56967;43.538;-5.646;2023-03-29T09:21:54;48.55;;;12.65;;
69703;SDS011;56967;43.538;-5.646;2023-03-29T09:27:17;42.55;;;11.85;;
69703;SDS011;56967;43.538;-5.646;2023-03-29T09:30:01;35.75;;;11.63;;
69703;SDS011;56967;43.538;-5.646;2023-03-29T09:35:28;32.92;;;10.73;;
69703;SDS011;56967;43.538;-5.646;2023-03-29T09:37:58;46.38;;;13.50;;
69703;SDS011;56967;43.538;-5.646;2023-03-29T09:43:03;48.45;;;13.70;;
69703;SDS011;56967;43.538;-5.646;2023-03-29T09:45:35;47.55;;;13.13;;
69703;SDS011;56967;43.538;-5.646;2023-03-29T09:48:08;49.08;;;14.23;;
69703;SDS011;56967;43.538;-5.646;2023-03-29T09:50:45;56.83;;;16.25;;
69703;SDS011;56967;43.538;-5.646;2023-03-29T09:53:15;53.22;;;15.82;;
69703;SDS011;56967;43.538;-5.646;2023-03-29T09:55:43;48.55;;;14.60;;
69703;SDS011;56967;43.538;-5.646;2023-03-29T09:58:21;42.60;;;14.23;;
69703;SDS011;56967;43.538;-5.646;2023-03-29T10:00:49;42.75;;;13.90;;
69703;SDS011;56967;43.538;-5.646;2023-03-29T10:03:22;35.58;;;12.50;;
69703;SDS011;56967;43.538;-5.646;2023-03-29T10:05:50;36.30;;;13.63;;
69703;SDS011;56967;43.538;-5.646;2023-03-29T10:08:24;45.53;;;14.63;;
69703;SDS011;56967;43.538;-5.646;2023-03-29T10:10:57;46.22;;;13.43;;
69703;SDS011;56967;43.538;-5.646;2023-03-29T10:13:28;47.03;;;14.57;;
69703;SDS011;56967;43.538;-5.646;2023-03-29T10:18:41;40.25;;;12.63;;
69703;SDS011;56967;43.538;-5.646;2023-03-29T10:21:08;30.98;;;11.50;;
69703;SDS011;56967;43.538;-5.646;2023-03-29T10:23:38;31.20;;;11.50;;
69703;SDS011;56967;43.538;-5.646;2023-03-29T10:26:04;33.13;;;11.27;;
69703;SDS011;56967;43.538;-5.646;2023-03-29T10:28:35;34.58;;;11.60;;
69703;SDS011;56967;43.538;-5.646;2023-03-29T10:31:02;27.88;;;10.30;;
69703;SDS011;56967;43.538;-5.646;2023-03-29T10:33:32;29.48;;;10.98;;
69703;SDS011;56967;43.538;-5.646;2023-03-29T10:36:01;29.50;;;10.95;;
69703;SDS011;56967;43.538;-5.646;2023-03-29T10:38:30;34.10;;;11.73;;
69703;SDS011;56967;43.538;-5.646;2023-03-29T10:41:17;27.40;;;11.35;;
69703;SDS011;56967;43.538;-5.646;2023-03-29T10:43:46;30.35;;;11.10;;
69703;SDS011;56967;43.538;-5.646;2023-03-29T10:46:28;28.00;;;11.65;;
69703;SDS011;56967;43.538;-5.646;2023-03-29T10:49:00;28.67;;;11.63;;
69703;SDS011;56967;43.538;-5.646;2023-03-29T10:51:34;27.50;;;12.00;;
69703;SDS011;56967;43.538;-5.646;2023-03-29T10:54:01;21.60;;;11.48;;
69703;SDS011;56967;43.538;-5.646;2023-03-29T10:59:15;28.58;;;11.20;;
69703;SDS011;56967;43.538;-5.646;2023-03-29T11:10:22;25.75;;;11.43;;
69703;SDS011;56967;43.538;-5.646;2023-03-29T11:13:09;29.63;;;11.30;;
69703;SDS011;56967;43.538;-5.646;2023-03-29T11:19:06;34.20;;;11.05;;
69703;SDS011;56967;43.538;-5.646;2023-03-29T11:24:27;34.05;;;12.02;;
69703;SDS011;56967;43.538;-5.646;2023-03-29T11:27:16;32.90;;;12.32;;
69703;SDS011;56967;43.538;-5.646;2023-03-29T11:35:19;34.83;;;14.18;;
69703;SDS011;56967;43.538;-5.646;2023-03-29T11:38:34;40.97;;;12.93;;
69703;SDS011;56967;43.538;-5.646;2023-03-29T11:40:45;37.53;;;12.00;;
69703;SDS011;56967;43.538;-5.646;2023-03-29T11:43:25;37.38;;;12.73;;
69703;SDS011;56967;43.538;-5.646;2023-03-29T11:46:00;38.03;;;12.32;;
69703;SDS011;56967;43.538;-5.646;2023-03-29T11:48:55;34.13;;;11.90;;
69703;SDS011;56967;43.538;-5.646;2023-03-29T11:56:58;29.52;;;12.57;;
69703;SDS011;56967;43.538;-5.646;2023-03-29T12:02:21;33.17;;;12.55;;
69703;SDS011;56967;43.538;-5.646;2023-03-29T12:05:14;34.03;;;12.65;;
69703;SDS011;56967;43.538;-5.646;2023-03-29T12:08:02;58.53;;;14.50;;
69703;SDS011;56967;43.538;-5.646;2023-03-29T12:11:07;36.15;;;13.98;;
69703;SDS011;56967;43.538;-5.646;2023-03-29T12:13:35;36.20;;;12.95;;
69703;SDS011;56967;43.538;-5.646;2023-03-29T12:18:53;30.77;;;12.13;;
69703;SDS011;56967;43.538;-5.646;2023-03-29T12:21:21;32.72;;;13.45;;
69703;SDS011;56967;43.538;-5.646;2023-03-29T12:23:50;31.23;;;14.00;;
69703;SDS011;56967;43.538;-5.646;2023-03-29T12:26:26;30.27;;;13.60;;
69703;SDS011;56967;43.538;-5.646;2023-03-29T12:29:06;30.92;;;14.55;;
69703;SDS011;56967;43.538;-5.646;2023-03-29T12:37:54;33.17;;;14.38;;
69703;SDS011;56967;43.538;-5.646;2023-03-29T12:40:45;36.78;;;14.52;;
69703;SDS011;56967;43.538;-5.646;2023-03-29T12:43:25;31.13;;;13.30;;
69703;SDS011;56967;43.538;-5.646;2023-03-29T12:45:56;26.42;;;13.57;;
69703;SDS011;56967;43.538;-5.646;2023-03-29T12:48:47;25.88;;;13.45;;
69703;SDS011;56967;43.538;-5.646;2023-03-29T12:51:18;23.95;;;13.35;;
69703;SDS011;56967;43.538;-5.646;2023-03-29T12:53:51;27.85;;;13.40;;
69703;SDS011;56967;43.538;-5.646;2023-03-29T12:56:20;29.23;;;13.63;;
69703;SDS011;56967;43.538;-5.646;2023-03-29T13:01:37;40.50;;;13.50;;
69703;SDS011;56967;43.538;-5.646;2023-03-29T13:04:19;35.05;;;13.60;;
69703;SDS011;56967;43.538;-5.646;2023-03-29T13:09:34;33.92;;;12.02;;
69703;SDS011;56967;43.538;-5.646;2023-03-29T13:14:45;31.45;;;13.60;;
69703;SDS011;56967;43.538;-5.646;2023-03-29T13:17:25;34.05;;;13.75;;
69703;SDS011;56967;43.538;-5.646;2023-03-29T13:20:00;37.53;;;14.63;;
69703;SDS011;56967;43.538;-5.646;2023-03-29T13:25:47;38.05;;;13.65;;
69703;SDS011;56967;43.538;-5.646;2023-03-29T13:39:46;35.95;;;12.93;;
69703;SDS011;56967;43.538;-5.646;2023-03-29T13:42:23;29.90;;;13.85;;
69703;SDS011;56967;43.538;-5.646;2023-03-29T13:44:49;31.83;;;12.95;;
69703;SDS011;56967;43.538;-5.646;2023-03-29T13:49:46;21.90;;;11.05;;
69703;SDS011;56967;43.538;-5.646;2023-03-29T13:55:03;31.70;;;12.45;;
69703;SDS011;56967;43.538;-5.646;2023-03-29T13:57:37;31.67;;;11.90;;
69703;SDS011;56967;43.538;-5.646;2023-03-29T14:03:09;37.28;;;13.60;;
69703;SDS011;56967;43.538;-5.646;2023-03-29T14:05:38;38.03;;;14.63;;
69703;SDS011;56967;43.538;-5.646;2023-03-29T14:08:09;49.65;;;18.58;;
69703;SDS011;56967;43.538;-5.646;2023-03-29T14:10:41;43.45;;;17.33;;
69703;SDS011;56967;43.538;-5.646;2023-03-29T14:13:13;46.03;;;19.70;;
69703;SDS011;56967;43.538;-5.646;2023-03-29T14:15:42;41.08;;;18.48;;
69703;SDS011;56967;43.538;-5.646;2023-03-29T14:18:14;41.00;;;19.02;;
69703;SDS011;56967;43.538;-5.646;2023-03-29T14:20:42;53.70;;;18.67;;
69703;SDS011;56967;43.538;-5.646;2023-03-29T14:23:10;45.58;;;18.88;;
69703;SDS011;56967;43.538;-5.646;2023-03-29T14:25:37;52.28;;;17.88;;
69703;SDS011;56967;43.538;-5.646;2023-03-29T14:28:20;44.33;;;16.17;;
69703;SDS011;56967;43.538;-5.646;2023-03-29T14:30:51;41.50;;;16.83;;
69703;SDS011;56967;43.538;-5.646;2023-03-29T14:35:54;42.97;;;17.33;;
69703;SDS011;56967;43.538;-5.646;2023-03-29T14:38:21;34.55;;;16.05;;
69703;SDS011;56967;43.538;-5.646;2023-03-29T14:40:48;33.30;;;16.33;;
69703;SDS011;56967;43.538;-5.646;2023-03-29T14:43:16;28.25;;;16.77;;
69703;SDS011;56967;43.538;-5.646;2023-03-29T14:45:43;32.45;;;16.75;;
69703;SDS011;56967;43.538;-5.646;2023-03-29T14:48:13;26.17;;;15.90;;
69703;SDS011;56967;43.538;-5.646;2023-03-29T14:50:39;30.33;;;18.02;;
69703;SDS011;56967;43.538;-5.646;2023-03-29T14:53:06;33.03;;;18.02;;
69703;SDS011;56967;43.538;-5.646;2023-03-29T14:55:36;40.78;;;22.05;;
69703;SDS011;56967;43.538;-5.646;2023-03-29T14:58:12;38.95;;;22.50;;
69703;SDS011;56967;43.538;-5.646;2023-03-29T15:00:49;36.13;;;19.77;;
69703;SDS011;56967;43.538;-5.646;2023-03-29T15:03:18;38.20;;;22.77;;
69703;SDS011;56967;43.538;-5.646;2023-03-29T15:06:02;36.88;;;22.30;;
69703;SDS011;56967;43.538;-5.646;2023-03-29T15:08:30;35.20;;;21.98;;
69703;SDS011;56967;43.538;-5.646;2023-03-29T15:10:58;37.42;;;20.20;;
69703;SDS011;56967;43.538;-5.646;2023-03-29T15:13:24;35.78;;;20.88;;
69703;SDS011;56967;43.538;-5.646;2023-03-29T15:15:52;26.77;;;20.65;;
69703;SDS011;56967;43.538;-5.646;2023-03-29T15:18:24;34.50;;;22.08;;
69703;SDS011;56967;43.538;-5.646;2023-03-29T15:20:54;39.38;;;25.75;;
69703;SDS011;56967;43.538;-5.646;2023-03-29T15:23:21;38.70;;;24.30;;
69703;SDS011;56967;43.538;-5.646;2023-03-29T15:25:56;33.75;;;23.48;;
69703;SDS011;56967;43.538;-5.646;2023-03-29T15:31:12;32.60;;;19.02;;
69703;SDS011;56967;43.538;-5.646;2023-03-29T15:33:41;27.80;;;16.80;;
69703;SDS011;56967;43.538;-5.646;2023-03-29T15:36:08;23.77;;;15.68;;
69703;SDS011;56967;43.538;-5.646;2023-03-29T15:38:35;24.02;;;15.93;;
69703;SDS011;56967;43.538;-5.646;2023-03-29T15:41:02;27.35;;;16.80;;
69703;SDS011;56967;43.538;-5.646;2023-03-29T15:43:28;26.98;;;16.88;;
69703;SDS011;56967;43.538;-5.646;2023-03-29T15:45:55;22.33;;;15.45;;
69703;SDS011;56967;43.538;-5.646;2023-03-29T15:48:24;24.58;;;15.18;;
69703;SDS011;56967;43.538;-5.646;2023-03-29T15:50:51;23.02;;;15.77;;
69703;SDS011;56967;43.538;-5.646;2023-03-29T15:53:18;28.98;;;15.98;;
69703;SDS011;56967;43.538;-5.646;2023-03-29T15:55:49;26.77;;;15.88;;
69703;SDS011;56967;43.538;-5.646;2023-03-29T15:58:17;21.08;;;13.00;;
69703;SDS011;56967;43.538;-5.646;2023-03-29T16:00:51;26.80;;;15.32;;
69703;SDS011;56967;43.538;-5.646;2023-03-29T16:03:23;20.75;;;13.88;;
69703;SDS011;56967;43.538;-5.646;2023-03-29T16:05:51;19.77;;;12.70;;
69703;SDS011;56967;43.538;-5.646;2023-03-29T16:08:20;20.75;;;12.85;;
69703;SDS011;56967;43.538;-5.646;2023-03-29T16:10:47;17.70;;;11.18;;
69703;SDS011;56967;43.538;-5.646;2023-03-29T16:13:13;14.75;;;9.98;;
69703;SDS011;56967;43.538;-5.646;2023-03-29T16:15:39;15.07;;;11.60;;
69703;SDS011;56967;43.538;-5.646;2023-03-29T16:18:06;19.38;;;12.75;;
69703;SDS011;56967;43.538;-5.646;2023-03-29T16:20:32;19.17;;;11.75;;
69703;SDS011;56967;43.538;-5.646;2023-03-29T16:22:57;19.23;;;11.38;;
69703;SDS011;56967;43.538;-5.646;2023-03-29T16:25:23;17.75;;;10.52;;